Wind From: 13-12-2017 10:08 Until: 14-12-2017 06:00 warning for: Wind Level: Yellow info button

Although rather usual in this region, locally or potentially dangerous phenomena are expected. (such as local winds, summer thunderstorms, rising streams or high waves) Be aware and pay attention to the latest weather updates, especially if you carry out activities exposed to weather or close to a stream or shoreline. 


Meteo18 Weather Cam more information Meteo18 Weather Cam


Thunder radar more information blitzortung!


Rain radar more information rain snow radar


Visit our other weather sites:

Template documentation
and downloads

And another site



Weather Underground History page Text

Daily Summary for June 21, 2017 Units:  Both    English   Metric
« Previous Day
Next Day »
Daily Weekly Monthly Yearly Custom
  High: Low: Average:
Temperature: 96.3 °F /  35.7 °C 66.6 °F /  19.2 °C 82.4 °F /  28 °C
Dew Point: 70.5 °F /  21.4 °C 63 °F /  17.2 °C 66.6 °F /  19.2 °C
Humidity: 91 % 36 % 62 %
Wind Speed: 10 mph /  16.1 km/h - 1.7 mph /  2.7 km/h
Wind Gust: 13 mph /  20.9 km/h - -
Wind:- - SW
Pressure: 30 in /  1016.8 hPa 30 in /  1014.4 hPa -
Precipitation: 0 in /  0.0 mm    
Historical Graphs
 
 
Tabular Data for June 21, 2017
Time Temperature Dew Point Pressure Wind Wind Speed Wind Gust Humidity Rainfall Rate (Hourly)
00:02 73.2 °F /  22.9 °C 66 °F /  18.9 °C 30 in /  1016.5 hPa West 3 mph /  4.8 km/h 13 mph /  20.9 km/h 78 % 0 in /  0.0 mm
00:12 73 °F /  22.8 °C 65.8 °F /  18.8 °C 30 in /  1016.8 hPa Calm   8 mph /  12.9 km/h 78 % 0 in /  0.0 mm
00:17 73.2 °F /  22.9 °C 66 °F /  18.9 °C 30 in /  1016.5 hPa Calm   8 mph /  12.9 km/h 78 % 0 in /  0.0 mm
00:22 73.2 °F /  22.9 °C 66 °F /  18.9 °C 30 in /  1016.5 hPa Calm   8 mph /  12.9 km/h 78 % 0 in /  0.0 mm
00:32 72.9 °F /  22.7 °C 66 °F /  18.9 °C 30 in /  1016.5 hPa NW 2 mph /  3.2 km/h 3 mph /  4.8 km/h 79 % 0 in /  0.0 mm
00:37 72.9 °F /  22.7 °C 66 °F /  18.9 °C 30 in /  1016.5 hPa NNE 3 mph /  4.8 km/h 3 mph /  4.8 km/h 79 % 0 in /  0.0 mm
00:42 73 °F /  22.8 °C 65.8 °F /  18.8 °C 30 in /  1016.5 hPa North 2 mph /  3.2 km/h 4 mph /  6.4 km/h 78 % 0 in /  0.0 mm
00:47 72.9 °F /  22.7 °C 66 °F /  18.9 °C 30 in /  1016.1 hPa NNE 4 mph /  6.4 km/h 5 mph /  8.0 km/h 79 % 0 in /  0.0 mm
00:52 72.9 °F /  22.7 °C 66 °F /  18.9 °C 30 in /  1016.1 hPa NE 3 mph /  4.8 km/h 5 mph /  8.0 km/h 79 % 0 in /  0.0 mm
00:57 72.9 °F /  22.7 °C 66.4 °F /  19.1 °C 30 in /  1016.5 hPa ENE 6 mph /  9.7 km/h 6 mph /  9.7 km/h 80 % 0 in /  0.0 mm
01:02 73.2 °F /  22.9 °C 65.1 °F /  18.4 °C 30 in /  1016.1 hPa NE 4 mph /  6.4 km/h 6 mph /  9.7 km/h 76 % 0 in /  0.0 mm
01:12 73.6 °F /  23.1 °C 65.5 °F /  18.6 °C 30 in /  1016.1 hPa Calm   8 mph /  12.9 km/h 76 % 0 in /  0.0 mm
01:17 73.2 °F /  22.9 °C 65.1 °F /  18.4 °C 30 in /  1016.1 hPa North 1 mph /  1.6 km/h 6 mph /  9.7 km/h 76 % 0 in /  0.0 mm
01:22 73.2 °F /  22.9 °C 65.1 °F /  18.4 °C 30 in /  1015.8 hPa North 1 mph /  1.6 km/h 6 mph /  9.7 km/h 76 % 0 in /  0.0 mm
01:27 73 °F /  22.8 °C 65.5 °F /  18.6 °C 30 in /  1015.8 hPa Calm   3 mph /  4.8 km/h 77 % 0 in /  0.0 mm
01:32 72.7 °F /  22.6 °C 65.5 °F /  18.6 °C 30 in /  1015.8 hPa Calm   3 mph /  4.8 km/h 78 % 0 in /  0.0 mm
01:42 73 °F /  22.8 °C 64.9 °F /  18.3 °C 30 in /  1015.8 hPa NE 1 mph /  1.6 km/h 6 mph /  9.7 km/h 76 % 0 in /  0.0 mm
01:47 72.9 °F /  22.7 °C 64.8 °F /  18.2 °C 30 in /  1015.8 hPa Calm   6 mph /  9.7 km/h 76 % 0 in /  0.0 mm
01:52 72.7 °F /  22.6 °C 65.1 °F /  18.4 °C 30 in /  1015.8 hPa Calm   6 mph /  9.7 km/h 77 % 0 in /  0.0 mm
01:57 72.1 °F /  22.3 °C 65.3 °F /  18.5 °C 30 in /  1015.8 hPa Calm   3 mph /  4.8 km/h 79 % 0 in /  0.0 mm
02:02 71.6 °F /  22.0 °C 65.1 °F /  18.4 °C 30 in /  1015.8 hPa Calm   3 mph /  4.8 km/h 80 % 0 in /  0.0 mm
02:07 71.2 °F /  21.8 °C 65.1 °F /  18.4 °C 30 in /  1015.8 hPa Calm   3 mph /  4.8 km/h 81 % 0 in /  0.0 mm
02:12 71.2 °F /  21.8 °C 65.1 °F /  18.4 °C 30 in /  1015.8 hPa Calm   1 mph /  1.6 km/h 81 % 0 in /  0.0 mm
02:17 70.9 °F /  21.6 °C 65.1 °F /  18.4 °C 30 in /  1015.8 hPa Calm   1 mph /  1.6 km/h 82 % 0 in /  0.0 mm
02:22 70.5 °F /  21.4 °C 65.1 °F /  18.4 °C 30 in /  1016.1 hPa Calm   1 mph /  1.6 km/h 83 % 0 in /  0.0 mm
02:27 70.3 °F /  21.3 °C 64.9 °F /  18.3 °C 30 in /  1016.1 hPa Calm   1 mph /  1.6 km/h 83 % 0 in /  0.0 mm
02:32 70 °F /  21.1 °C 64.9 °F /  18.3 °C 30 in /  1016.1 hPa West 1 mph /  1.6 km/h 1 mph /  1.6 km/h 84 % 0 in /  0.0 mm
02:42 69.8 °F /  21.0 °C 65.1 °F /  18.4 °C 30 in /  1016.1 hPa East 2 mph /  3.2 km/h 2 mph /  3.2 km/h 85 % 0 in /  0.0 mm
02:47 69.6 °F /  20.9 °C 64.6 °F /  18.1 °C 30 in /  1016.1 hPa East 1 mph /  1.6 km/h 3 mph /  4.8 km/h 84 % 0 in /  0.0 mm
02:52 69.6 °F /  20.9 °C 64.9 °F /  18.3 °C 30 in /  1015.8 hPa Calm   3 mph /  4.8 km/h 85 % 0 in /  0.0 mm
02:57 69.4 °F /  20.8 °C 64.8 °F /  18.2 °C 30 in /  1016.1 hPa SSE 1 mph /  1.6 km/h 3 mph /  4.8 km/h 85 % 0 in /  0.0 mm
03:02 69.1 °F /  20.6 °C 64.8 °F /  18.2 °C 30 in /  1016.1 hPa SSE 2 mph /  3.2 km/h 3 mph /  4.8 km/h 86 % 0 in /  0.0 mm
03:07 69.1 °F /  20.6 °C 64.8 °F /  18.2 °C 30 in /  1015.8 hPa Calm   2 mph /  3.2 km/h 86 % 0 in /  0.0 mm
03:12 69.1 °F /  20.6 °C 65.1 °F /  18.4 °C 30 in /  1016.1 hPa NE 1 mph /  1.6 km/h 2 mph /  3.2 km/h 87 % 0 in /  0.0 mm
03:17 70 °F /  21.1 °C 64.9 °F /  18.3 °C 30 in /  1016.1 hPa WNW 2 mph /  3.2 km/h 2 mph /  3.2 km/h 84 % 0 in /  0.0 mm
03:22 69.1 °F /  20.6 °C 64.8 °F /  18.2 °C 30 in /  1016.1 hPa WNW 2 mph /  3.2 km/h 4 mph /  6.4 km/h 86 % 0 in /  0.0 mm
03:32 68.4 °F /  20.2 °C 64.6 °F /  18.1 °C 30 in /  1016.1 hPa Calm   4 mph /  6.4 km/h 88 % 0 in /  0.0 mm
03:37 68.4 °F /  20.2 °C 64.9 °F /  18.3 °C 30 in /  1016.1 hPa West 1 mph /  1.6 km/h 4 mph /  6.4 km/h 89 % 0 in /  0.0 mm
03:42 68.4 °F /  20.2 °C 64.9 °F /  18.3 °C 30 in /  1015.8 hPa WNW 2 mph /  3.2 km/h 4 mph /  6.4 km/h 89 % 0 in /  0.0 mm
03:47 68 °F /  20.0 °C 64.4 °F /  18.0 °C 30 in /  1015.8 hPa WNW 2 mph /  3.2 km/h 2 mph /  3.2 km/h 88 % 0 in /  0.0 mm
03:52 67.8 °F /  19.9 °C 64.4 °F /  18.0 °C 30 in /  1016.1 hPa Calm   2 mph /  3.2 km/h 89 % 0 in /  0.0 mm
04:02 68.2 °F /  20.1 °C 64.8 °F /  18.2 °C 30 in /  1016.1 hPa Calm   2 mph /  3.2 km/h 89 % 0 in /  0.0 mm
04:07 68.5 °F /  20.3 °C 64.8 °F /  18.2 °C 30 in /  1016.1 hPa WNW 1 mph /  1.6 km/h 3 mph /  4.8 km/h 88 % 0 in /  0.0 mm
04:12 69.1 °F /  20.6 °C 65.1 °F /  18.4 °C 30 in /  1016.1 hPa NW 1 mph /  1.6 km/h 3 mph /  4.8 km/h 87 % 0 in /  0.0 mm
04:17 69.3 °F /  20.7 °C 64.9 °F /  18.3 °C 30 in /  1016.1 hPa WNW 1 mph /  1.6 km/h 2 mph /  3.2 km/h 86 % 0 in /  0.0 mm
04:22 69.1 °F /  20.6 °C 64.8 °F /  18.2 °C 30 in /  1015.8 hPa Calm   2 mph /  3.2 km/h 86 % 0 in /  0.0 mm
04:27 69.1 °F /  20.6 °C 65.1 °F /  18.4 °C 30 in /  1015.8 hPa Calm   2 mph /  3.2 km/h 87 % 0 in /  0.0 mm
04:32 69.4 °F /  20.8 °C 65.1 °F /  18.4 °C 30 in /  1015.8 hPa Calm   2 mph /  3.2 km/h 86 % 0 in /  0.0 mm
04:37 69.4 °F /  20.8 °C 64.8 °F /  18.2 °C 30 in /  1015.8 hPa Calm   2 mph /  3.2 km/h 85 % 0 in /  0.0 mm
04:42 69.3 °F /  20.7 °C 64.9 °F /  18.3 °C 30 in /  1015.8 hPa Calm     86 % 0 in /  0.0 mm
04:47 68.9 °F /  20.5 °C 64.6 °F /  18.1 °C 30 in /  1015.8 hPa Calm   1 mph /  1.6 km/h 86 % 0 in /  0.0 mm
04:52 69.1 °F /  20.6 °C 64.8 °F /  18.2 °C 30 in /  1015.8 hPa NW 2 mph /  3.2 km/h 2 mph /  3.2 km/h 86 % 0 in /  0.0 mm
05:02 70.2 °F /  21.2 °C 64.8 °F /  18.2 °C 30 in /  1015.8 hPa Calm   3 mph /  4.8 km/h 83 % 0 in /  0.0 mm
05:12 68.5 °F /  20.3 °C 63.5 °F /  17.5 °C 30 in /  1015.8 hPa Calm   3 mph /  4.8 km/h 84 % 0 in /  0.0 mm
05:22 67.3 °F /  19.6 °C 63.7 °F /  17.6 °C 30 in /  1015.8 hPa Calm   2 mph /  3.2 km/h 88 % 0 in /  0.0 mm
05:32 66.9 °F /  19.4 °C 63.9 °F /  17.7 °C 30 in /  1015.8 hPa Calm   2 mph /  3.2 km/h 90 % 0 in /  0.0 mm
05:42 66.9 °F /  19.4 °C 63.9 °F /  17.7 °C 30 in /  1016.1 hPa Calm     90 % 0 in /  0.0 mm
05:47 66.9 °F /  19.4 °C 63.9 °F /  17.7 °C 30 in /  1016.1 hPa Calm     90 % 0 in /  0.0 mm
05:52 66.9 °F /  19.4 °C 63.9 °F /  17.7 °C 30 in /  1016.1 hPa Calm     90 % 0 in /  0.0 mm
06:02 66.7 °F /  19.3 °C 63.7 °F /  17.6 °C 30 in /  1016.1 hPa Calm     90 % 0 in /  0.0 mm
06:12 66.6 °F /  19.2 °C 63.9 °F /  17.7 °C 30 in /  1016.1 hPa Calm     91 % 0 in /  0.0 mm
06:17 66.6 °F /  19.2 °C 63.9 °F /  17.7 °C 30 in /  1016.1 hPa Calm     91 % 0 in /  0.0 mm
06:22 66.7 °F /  19.3 °C 64 °F /  17.8 °C 30 in /  1016.1 hPa Calm     91 % 0 in /  0.0 mm
06:27 66.6 °F /  19.2 °C 63.9 °F /  17.7 °C 30 in /  1016.1 hPa Calm     91 % 0 in /  0.0 mm
06:32 66.6 °F /  19.2 °C 63.9 °F /  17.7 °C 30 in /  1016.1 hPa Calm     91 % 0 in /  0.0 mm
06:42 66.7 °F /  19.3 °C 63.7 °F /  17.6 °C 30 in /  1016.1 hPa Calm     90 % 0 in /  0.0 mm
06:47 67.1 °F /  19.5 °C 64.4 °F /  18.0 °C 30 in /  1016.1 hPa Calm     91 % 0 in /  0.0 mm
06:52 67.6 °F /  19.8 °C 64.9 °F /  18.3 °C 30 in /  1016.1 hPa Calm     91 % 0 in /  0.0 mm
06:57 68.5 °F /  20.3 °C 65.5 °F /  18.6 °C 30 in /  1016.1 hPa Calm     90 % 0 in /  0.0 mm
07:02 68.9 °F /  20.5 °C 65.1 °F /  18.4 °C 30 in /  1016.1 hPa Calm     88 % 0 in /  0.0 mm
07:12 70.2 °F /  21.2 °C 65.8 °F /  18.8 °C 30 in /  1016.1 hPa Calm     86 % 0 in /  0.0 mm
07:17 70 °F /  21.1 °C 65.7 °F /  18.7 °C 30 in /  1016.1 hPa Calm     86 % 0 in /  0.0 mm
07:22 70.7 °F /  21.5 °C 66.6 °F /  19.2 °C 30 in /  1016.1 hPa Calm     87 % 0 in /  0.0 mm
07:32 72 °F /  22.2 °C 66.6 °F /  19.2 °C 30 in /  1016.1 hPa Calm     83 % 0 in /  0.0 mm
07:42 72.1 °F /  22.3 °C 66.7 °F /  19.3 °C 30 in /  1016.1 hPa Calm     83 % 0 in /  0.0 mm
07:47 73.2 °F /  22.9 °C 67.1 °F /  19.5 °C 30 in /  1016.1 hPa Calm     81 % 0 in /  0.0 mm
07:52 73.9 °F /  23.3 °C 67.5 °F /  19.7 °C 30 in /  1016.1 hPa Calm     80 % 0 in /  0.0 mm
07:57 74.7 °F /  23.7 °C 67.6 °F /  19.8 °C 30 in /  1016.1 hPa Calm     79 % 0 in /  0.0 mm
08:02 75.2 °F /  24.0 °C 68.2 °F /  20.1 °C 30 in /  1016.1 hPa Calm     79 % 0 in /  0.0 mm
08:12 75 °F /  23.9 °C 68.4 °F /  20.2 °C 30 in /  1016.5 hPa Calm     80 % 0 in /  0.0 mm
08:17 75.6 °F /  24.2 °C 68.9 °F /  20.5 °C 30 in /  1016.5 hPa Calm     80 % 0 in /  0.0 mm
08:22 77 °F /  25.0 °C 69.6 °F /  20.9 °C 30 in /  1016.5 hPa Calm     78 % 0 in /  0.0 mm
08:32 78.1 °F /  25.6 °C 69.1 °F /  20.6 °C 30 in /  1016.5 hPa Calm     74 % 0 in /  0.0 mm
08:37 78.6 °F /  25.9 °C 69.3 °F /  20.7 °C 30 in /  1016.5 hPa Calm     73 % 0 in /  0.0 mm
08:47 79.9 °F /  26.6 °C 68.7 °F /  20.4 °C 30 in /  1016.5 hPa Calm     69 % 0 in /  0.0 mm
08:57 80.2 °F /  26.8 °C 68.7 °F /  20.4 °C 30 in /  1016.5 hPa Calm     68 % 0 in /  0.0 mm
09:02 79.5 °F /  26.4 °C 68 °F /  20.0 °C 30 in /  1016.5 hPa SSW 2 mph /  3.2 km/h   68 % 0 in /  0.0 mm
09:12 79 °F /  26.1 °C 68.4 °F /  20.2 °C 30 in /  1016.5 hPa SW 1 mph /  1.6 km/h 3 mph /  4.8 km/h 70 % 0 in /  0.0 mm
09:17 79.5 °F /  26.4 °C 69.3 °F /  20.7 °C 30 in /  1016.5 hPa SSE 2 mph /  3.2 km/h 4 mph /  6.4 km/h 71 % 0 in /  0.0 mm
09:27 80.4 °F /  26.9 °C 69.8 °F /  21.0 °C 30 in /  1016.5 hPa SW 1 mph /  1.6 km/h 3 mph /  4.8 km/h 70 % 0 in /  0.0 mm
09:32 80.8 °F /  27.1 °C 69.6 °F /  20.9 °C 30 in /  1016.5 hPa SE 2 mph /  3.2 km/h 3 mph /  4.8 km/h 69 % 0 in /  0.0 mm
09:42 80.6 °F /  27.0 °C 68.5 °F /  20.3 °C 30 in /  1016.5 hPa WSW 2 mph /  3.2 km/h 3 mph /  4.8 km/h 67 % 0 in /  0.0 mm
09:47 80.8 °F /  27.1 °C 69.3 °F /  20.7 °C 30 in /  1016.5 hPa SSE 2 mph /  3.2 km/h 5 mph /  8.0 km/h 68 % 0 in /  0.0 mm
09:52 81.1 °F /  27.3 °C 68.2 °F /  20.1 °C 30 in /  1016.5 hPa SSW 3 mph /  4.8 km/h 5 mph /  8.0 km/h 65 % 0 in /  0.0 mm
10:02 81.7 °F /  27.6 °C 67.5 °F /  19.7 °C 30 in /  1016.5 hPa South 2 mph /  3.2 km/h 5 mph /  8.0 km/h 62 % 0 in /  0.0 mm
10:12 82.6 °F /  28.1 °C 69.1 °F /  20.6 °C 30 in /  1016.5 hPa SSW 1 mph /  1.6 km/h 4 mph /  6.4 km/h 64 % 0 in /  0.0 mm
10:17 83.3 °F /  28.5 °C 68.4 °F /  20.2 °C 30 in /  1016.5 hPa SSW 2 mph /  3.2 km/h 4 mph /  6.4 km/h 61 % 0 in /  0.0 mm
10:22 83.8 °F /  28.8 °C 68.9 °F /  20.5 °C 30 in /  1016.5 hPa SSW 3 mph /  4.8 km/h 4 mph /  6.4 km/h 61 % 0 in /  0.0 mm
10:27 83.7 °F /  28.7 °C 67.8 °F /  19.9 °C 30 in /  1016.5 hPa Calm   4 mph /  6.4 km/h 59 % 0 in /  0.0 mm
10:32 84 °F /  28.9 °C 69.1 °F /  20.6 °C 30 in /  1016.5 hPa SSW 2 mph /  3.2 km/h 4 mph /  6.4 km/h 61 % 0 in /  0.0 mm
10:42 85.5 °F /  29.7 °C 69.1 °F /  20.6 °C 30 in /  1016.5 hPa SSW 2 mph /  3.2 km/h 5 mph /  8.0 km/h 58 % 0 in /  0.0 mm
10:47 85.5 °F /  29.7 °C 68.5 °F /  20.3 °C 30 in /  1016.5 hPa SSW 3 mph /  4.8 km/h 5 mph /  8.0 km/h 57 % 0 in /  0.0 mm
10:57 85.5 °F /  29.7 °C 69.1 °F /  20.6 °C 30 in /  1016.5 hPa SSW 3 mph /  4.8 km/h 6 mph /  9.7 km/h 58 % 0 in /  0.0 mm
11:02 86.2 °F /  30.1 °C 69.6 °F /  20.9 °C 30 in /  1016.5 hPa SW 2 mph /  3.2 km/h 6 mph /  9.7 km/h 58 % 0 in /  0.0 mm
11:12 86.5 °F /  30.3 °C 68.4 °F /  20.2 °C 30 in /  1016.5 hPa SW 3 mph /  4.8 km/h 6 mph /  9.7 km/h 55 % 0 in /  0.0 mm
11:17 86.5 °F /  30.3 °C 68.4 °F /  20.2 °C 30 in /  1016.5 hPa SSW 2 mph /  3.2 km/h 5 mph /  8.0 km/h 55 % 0 in /  0.0 mm
11:22 87.1 °F /  30.6 °C 67.8 °F /  19.9 °C 30 in /  1016.5 hPa SW 1 mph /  1.6 km/h 5 mph /  8.0 km/h 53 % 0 in /  0.0 mm
11:32 88 °F /  31.1 °C 68.7 °F /  20.4 °C 30 in /  1016.5 hPa SW 5 mph /  8.0 km/h 6 mph /  9.7 km/h 53 % 0 in /  0.0 mm
11:37 88.2 °F /  31.2 °C 67.1 °F /  19.5 °C 30 in /  1016.5 hPa SSW 3 mph /  4.8 km/h 6 mph /  9.7 km/h 50 % 0 in /  0.0 mm
11:42 88.3 °F /  31.3 °C 68.5 °F /  20.3 °C 30 in /  1016.5 hPa SSW 2 mph /  3.2 km/h 6 mph /  9.7 km/h 52 % 0 in /  0.0 mm
11:52 88.9 °F /  31.6 °C 68.9 °F /  20.5 °C 30 in /  1016.5 hPa SW 2 mph /  3.2 km/h 7 mph /  11.3 km/h 52 % 0 in /  0.0 mm
11:57 89.1 °F /  31.7 °C 68 °F /  20.0 °C 30 in /  1016.5 hPa SW 5 mph /  8.0 km/h 7 mph /  11.3 km/h 50 % 0 in /  0.0 mm
12:02 89.2 °F /  31.8 °C 68.7 °F /  20.4 °C 30 in /  1016.5 hPa SW 5 mph /  8.0 km/h 7 mph /  11.3 km/h 51 % 0 in /  0.0 mm
12:12 89.2 °F /  31.8 °C 68.2 °F /  20.1 °C 30 in /  1016.5 hPa WSW 3 mph /  4.8 km/h 8 mph /  12.9 km/h 50 % 0 in /  0.0 mm
12:17 89.2 °F /  31.8 °C 69.3 °F /  20.7 °C 30 in /  1016.5 hPa SW 3 mph /  4.8 km/h 8 mph /  12.9 km/h 52 % 0 in /  0.0 mm
12:22 90 °F /  32.2 °C 69.4 °F /  20.8 °C 30 in /  1016.5 hPa Calm   8 mph /  12.9 km/h 51 % 0 in /  0.0 mm
12:32 91 °F /  32.8 °C 69.3 °F /  20.7 °C 30 in /  1016.5 hPa SW 6 mph /  9.7 km/h 8 mph /  12.9 km/h 49 % 0 in /  0.0 mm
12:42 90 °F /  32.2 °C 68.9 °F /  20.5 °C 30 in /  1016.5 hPa SW 4 mph /  6.4 km/h 10 mph /  16.1 km/h 50 % 0 in /  0.0 mm
12:47 90 °F /  32.2 °C 68.9 °F /  20.5 °C 30 in /  1016.5 hPa West 1 mph /  1.6 km/h 10 mph /  16.1 km/h 50 % 0 in /  0.0 mm
12:52 90.3 °F /  32.4 °C 68 °F /  20.0 °C 30 in /  1016.5 hPa SW 2 mph /  3.2 km/h 10 mph /  16.1 km/h 48 % 0 in /  0.0 mm
13:02 91 °F /  32.8 °C 67.5 °F /  19.7 °C 30 in /  1016.5 hPa West 4 mph /  6.4 km/h 9 mph /  14.5 km/h 46 % 0 in /  0.0 mm
13:12 91.8 °F /  33.2 °C 67.5 °F /  19.7 °C 30 in /  1016.5 hPa SW 5 mph /  8.0 km/h 11 mph /  17.7 km/h 45 % 0 in /  0.0 mm
13:17 92.1 °F /  33.4 °C 69.6 °F /  20.9 °C 30 in /  1016.5 hPa SSW 1 mph /  1.6 km/h 9 mph /  14.5 km/h 48 % 0 in /  0.0 mm
13:22 92.7 °F /  33.7 °C 67.6 °F /  19.8 °C 30 in /  1016.1 hPa SE 3 mph /  4.8 km/h 9 mph /  14.5 km/h 44 % 0 in /  0.0 mm
13:32 92.1 °F /  33.4 °C 67.1 °F /  19.5 °C 30 in /  1016.1 hPa SW 3 mph /  4.8 km/h 9 mph /  14.5 km/h 44 % 0 in /  0.0 mm
13:42 91.6 °F /  33.1 °C 67.3 °F /  19.6 °C 30 in /  1016.1 hPa SSW 2 mph /  3.2 km/h 9 mph /  14.5 km/h 45 % 0 in /  0.0 mm
13:52 92.1 °F /  33.4 °C 67.6 °F /  19.8 °C 30 in /  1016.1 hPa SW 9 mph /  14.5 km/h 10 mph /  16.1 km/h 45 % 0 in /  0.0 mm
13:57 91.8 °F /  33.2 °C 68.7 °F /  20.4 °C 30 in /  1016.1 hPa Calm   10 mph /  16.1 km/h 47 % 0 in /  0.0 mm
14:02 91.9 °F /  33.3 °C 67.6 °F /  19.8 °C 30 in /  1016.1 hPa West 4 mph /  6.4 km/h 10 mph /  16.1 km/h 45 % 0 in /  0.0 mm
14:12 91.9 °F /  33.3 °C 66.2 °F /  19.0 °C 30 in /  1016.1 hPa WSW 1 mph /  1.6 km/h 11 mph /  17.7 km/h 43 % 0 in /  0.0 mm
14:17 92.1 °F /  33.4 °C 67.1 °F /  19.5 °C 30 in /  1016.1 hPa SSE 2 mph /  3.2 km/h 10 mph /  16.1 km/h 44 % 0 in /  0.0 mm
14:22 92.5 °F /  33.6 °C 67.5 °F /  19.7 °C 30 in /  1015.8 hPa WSW 7 mph /  11.3 km/h 10 mph /  16.1 km/h 44 % 0 in /  0.0 mm
14:32 92.3 °F /  33.5 °C 67.8 °F /  19.9 °C 30 in /  1015.8 hPa South 5 mph /  8.0 km/h 10 mph /  16.1 km/h 45 % 0 in /  0.0 mm
14:37 92.5 °F /  33.6 °C 68.7 °F /  20.4 °C 30 in /  1015.8 hPa SW 6 mph /  9.7 km/h 8 mph /  12.9 km/h 46 % 0 in /  0.0 mm
14:42 92.7 °F /  33.7 °C 66.9 °F /  19.4 °C 30 in /  1015.8 hPa West 3 mph /  4.8 km/h 8 mph /  12.9 km/h 43 % 0 in /  0.0 mm
14:47 92.7 °F /  33.7 °C 66.9 °F /  19.4 °C 30 in /  1015.5 hPa WSW 5 mph /  8.0 km/h 8 mph /  12.9 km/h 43 % 0 in /  0.0 mm
14:52 92.8 °F /  33.8 °C 66.4 °F /  19.1 °C 30 in /  1015.5 hPa SSW 3 mph /  4.8 km/h 8 mph /  12.9 km/h 42 % 0 in /  0.0 mm
15:02 93.2 °F /  34.0 °C 66 °F /  18.9 °C 30 in /  1015.5 hPa WNW 10 mph /  16.1 km/h 10 mph /  16.1 km/h 41 % 0 in /  0.0 mm
15:07 93 °F /  33.9 °C 65.8 °F /  18.8 °C 30 in /  1015.5 hPa WNW 4 mph /  6.4 km/h 13 mph /  20.9 km/h 41 % 0 in /  0.0 mm
15:12 93.7 °F /  34.3 °C 65.1 °F /  18.4 °C 30 in /  1015.5 hPa NNW 3 mph /  4.8 km/h 13 mph /  20.9 km/h 39 % 0 in /  0.0 mm
15:17 93.6 °F /  34.2 °C 66.4 °F /  19.1 °C 30 in /  1015.5 hPa SSE 2 mph /  3.2 km/h 12 mph /  19.3 km/h 41 % 0 in /  0.0 mm
15:22 93.4 °F /  34.1 °C 65.5 °F /  18.6 °C 30 in /  1015.1 hPa NNW 2 mph /  3.2 km/h 12 mph /  19.3 km/h 40 % 0 in /  0.0 mm
15:32 93.2 °F /  34.0 °C 65.3 °F /  18.5 °C 30 in /  1015.1 hPa SW 6 mph /  9.7 km/h 9 mph /  14.5 km/h 40 % 0 in /  0.0 mm
15:37 93.4 °F /  34.1 °C 66.2 °F /  19.0 °C 30 in /  1015.1 hPa North 3 mph /  4.8 km/h 12 mph /  19.3 km/h 41 % 0 in /  0.0 mm
15:42 94.3 °F /  34.6 °C 66.2 °F /  19.0 °C 30 in /  1015.1 hPa West 4 mph /  6.4 km/h 12 mph /  19.3 km/h 40 % 0 in /  0.0 mm
15:47 93.9 °F /  34.4 °C 63.7 °F /  17.6 °C 30 in /  1015.1 hPa SW 6 mph /  9.7 km/h 7 mph /  11.3 km/h 37 % 0 in /  0.0 mm
15:52 93.7 °F /  34.3 °C 65.8 °F /  18.8 °C 30 in /  1015.1 hPa South 1 mph /  1.6 km/h 7 mph /  11.3 km/h 40 % 0 in /  0.0 mm
16:02 93.9 °F /  34.4 °C 65.8 °F /  18.8 °C 30 in /  1015.1 hPa SW 5 mph /  8.0 km/h 8 mph /  12.9 km/h 40 % 0 in /  0.0 mm
16:07 93.9 °F /  34.4 °C 65.8 °F /  18.8 °C 30 in /  1015.1 hPa SW 9 mph /  14.5 km/h 9 mph /  14.5 km/h 40 % 0 in /  0.0 mm
16:12 93.9 °F /  34.4 °C 65.8 °F /  18.8 °C 30 in /  1015.1 hPa WSW 9 mph /  14.5 km/h 9 mph /  14.5 km/h 40 % 0 in /  0.0 mm
16:17 93.6 °F /  34.2 °C 66.4 °F /  19.1 °C 30 in /  1015.1 hPa SW 5 mph /  8.0 km/h 9 mph /  14.5 km/h 41 % 0 in /  0.0 mm
16:27 94.3 °F /  34.6 °C 65.5 °F /  18.6 °C 30 in /  1015.1 hPa WNW 5 mph /  8.0 km/h 10 mph /  16.1 km/h 39 % 0 in /  0.0 mm
16:32 94.1 °F /  34.5 °C 63.9 °F /  17.7 °C 30 in /  1014.8 hPa Calm   10 mph /  16.1 km/h 37 % 0 in /  0.0 mm
16:42 94.8 °F /  34.9 °C 65.3 °F /  18.5 °C 30 in /  1014.8 hPa West 4 mph /  6.4 km/h 10 mph /  16.1 km/h 38 % 0 in /  0.0 mm
16:47 94.5 °F /  34.7 °C 65.7 °F /  18.7 °C 30 in /  1014.8 hPa SW 3 mph /  4.8 km/h 9 mph /  14.5 km/h 39 % 0 in /  0.0 mm
16:52 94.3 °F /  34.6 °C 66.2 °F /  19.0 °C 30 in /  1014.8 hPa SW 6 mph /  9.7 km/h 9 mph /  14.5 km/h 40 % 0 in /  0.0 mm
17:02 94.3 °F /  34.6 °C 64.8 °F /  18.2 °C 30 in /  1014.8 hPa NNW 3 mph /  4.8 km/h 11 mph /  17.7 km/h 38 % 0 in /  0.0 mm
17:07 94.1 °F /  34.5 °C 64.6 °F /  18.1 °C 30 in /  1014.4 hPa WNW 2 mph /  3.2 km/h 11 mph /  17.7 km/h 38 % 0 in /  0.0 mm
17:12 93.9 °F /  34.4 °C 64.4 °F /  18.0 °C 30 in /  1014.4 hPa SW 9 mph /  14.5 km/h 11 mph /  17.7 km/h 38 % 0 in /  0.0 mm
17:17 94.1 °F /  34.5 °C 64.6 °F /  18.1 °C 30 in /  1014.8 hPa West 8 mph /  12.9 km/h 12 mph /  19.3 km/h 38 % 0 in /  0.0 mm
17:22 93.9 °F /  34.4 °C 63 °F /  17.2 °C 30 in /  1014.4 hPa WNW 6 mph /  9.7 km/h 12 mph /  19.3 km/h 36 % 0 in /  0.0 mm
17:32 93.9 °F /  34.4 °C 63.7 °F /  17.6 °C 30 in /  1014.4 hPa SSW 4 mph /  6.4 km/h 11 mph /  17.7 km/h 37 % 0 in /  0.0 mm
17:42 94.6 °F /  34.8 °C 65.8 °F /  18.8 °C 30 in /  1014.4 hPa SSW 3 mph /  4.8 km/h 9 mph /  14.5 km/h 39 % 0 in /  0.0 mm
17:47 94.3 °F /  34.6 °C 65.5 °F /  18.6 °C 30 in /  1014.4 hPa SW 6 mph /  9.7 km/h 13 mph /  20.9 km/h 39 % 0 in /  0.0 mm
17:52 94.3 °F /  34.6 °C 65.5 °F /  18.6 °C 30 in /  1014.4 hPa SSW 6 mph /  9.7 km/h 13 mph /  20.9 km/h 39 % 0 in /  0.0 mm
17:57 94.6 °F /  34.8 °C 64.4 °F /  18.0 °C 30 in /  1014.4 hPa SW 3 mph /  4.8 km/h 13 mph /  20.9 km/h 37 % 0 in /  0.0 mm
18:02 94.6 °F /  34.8 °C 65.8 °F /  18.8 °C 30 in /  1014.4 hPa SW 2 mph /  3.2 km/h 13 mph /  20.9 km/h 39 % 0 in /  0.0 mm
18:12 94.8 °F /  34.9 °C 66 °F /  18.9 °C 30 in /  1014.4 hPa Calm   8 mph /  12.9 km/h 39 % 0 in /  0.0 mm
18:17 95.7 °F /  35.4 °C 66 °F /  18.9 °C 30 in /  1014.4 hPa NNE 2 mph /  3.2 km/h 7 mph /  11.3 km/h 38 % 0 in /  0.0 mm
18:22 95.5 °F /  35.3 °C 64.4 °F /  18.0 °C 30 in /  1014.4 hPa WNW 2 mph /  3.2 km/h 5 mph /  8.0 km/h 36 % 0 in /  0.0 mm
18:27 95 °F /  35.0 °C 65.5 °F /  18.6 °C 30 in /  1014.4 hPa West 3 mph /  4.8 km/h 5 mph /  8.0 km/h 38 % 0 in /  0.0 mm
18:32 95.2 °F /  35.1 °C 65.5 °F /  18.6 °C 30 in /  1014.4 hPa WSW 2 mph /  3.2 km/h 6 mph /  9.7 km/h 38 % 0 in /  0.0 mm
18:37 95 °F /  35.0 °C 63.9 °F /  17.7 °C 30 in /  1014.4 hPa NW 5 mph /  8.0 km/h 6 mph /  9.7 km/h 36 % 0 in /  0.0 mm
18:42 94.6 °F /  34.8 °C 65.1 °F /  18.4 °C 30 in /  1014.4 hPa SSW 3 mph /  4.8 km/h 6 mph /  9.7 km/h 38 % 0 in /  0.0 mm
18:47 94.8 °F /  34.9 °C 65.3 °F /  18.5 °C 30 in /  1014.4 hPa SW 2 mph /  3.2 km/h 8 mph /  12.9 km/h 38 % 0 in /  0.0 mm
18:52 94.6 °F /  34.8 °C 65.1 °F /  18.4 °C 30 in /  1014.4 hPa SSW 1 mph /  1.6 km/h 8 mph /  12.9 km/h 38 % 0 in /  0.0 mm
18:57 95.4 °F /  35.2 °C 65.7 °F /  18.7 °C 30 in /  1014.4 hPa Calm   4 mph /  6.4 km/h 38 % 0 in /  0.0 mm
19:02 96.3 °F /  35.7 °C 64.9 °F /  18.3 °C 30 in /  1014.4 hPa NE 2 mph /  3.2 km/h 4 mph /  6.4 km/h 36 % 0 in /  0.0 mm
19:12 95.7 °F /  35.4 °C 65.3 °F /  18.5 °C 30 in /  1014.4 hPa West 3 mph /  4.8 km/h 3 mph /  4.8 km/h 37 % 0 in /  0.0 mm
19:17 95.7 °F /  35.4 °C 66 °F /  18.9 °C 30 in /  1014.4 hPa WNW 2 mph /  3.2 km/h 5 mph /  8.0 km/h 38 % 0 in /  0.0 mm
19:22 95.7 °F /  35.4 °C 66 °F /  18.9 °C 30 in /  1014.4 hPa WNW 2 mph /  3.2 km/h 5 mph /  8.0 km/h 38 % 0 in /  0.0 mm
19:32 95.2 °F /  35.1 °C 64.8 °F /  18.2 °C 30 in /  1014.4 hPa WNW 2 mph /  3.2 km/h 5 mph /  8.0 km/h 37 % 0 in /  0.0 mm
19:37 95.4 °F /  35.2 °C 64.9 °F /  18.3 °C 30 in /  1014.4 hPa West 2 mph /  3.2 km/h 5 mph /  8.0 km/h 37 % 0 in /  0.0 mm
19:42 95.5 °F /  35.3 °C 65.8 °F /  18.8 °C 30 in /  1014.8 hPa West 1 mph /  1.6 km/h 5 mph /  8.0 km/h 38 % 0 in /  0.0 mm
19:47 95.4 °F /  35.2 °C 64.9 °F /  18.3 °C 30 in /  1014.4 hPa WNW 1 mph /  1.6 km/h 3 mph /  4.8 km/h 37 % 0 in /  0.0 mm
19:52 95.5 °F /  35.3 °C 65.1 °F /  18.4 °C 30 in /  1014.4 hPa Calm   3 mph /  4.8 km/h 37 % 0 in /  0.0 mm
20:02 94.8 °F /  34.9 °C 64.4 °F /  18.0 °C 30 in /  1014.8 hPa Calm   3 mph /  4.8 km/h 37 % 0 in /  0.0 mm
20:07 94.8 °F /  34.9 °C 65.3 °F /  18.5 °C 30 in /  1014.8 hPa Calm   4 mph /  6.4 km/h 38 % 0 in /  0.0 mm
20:12 95.2 °F /  35.1 °C 65.5 °F /  18.6 °C 30 in /  1014.8 hPa Calm   4 mph /  6.4 km/h 38 % 0 in /  0.0 mm
20:17 94.6 °F /  34.8 °C 65.8 °F /  18.8 °C 30 in /  1014.8 hPa Calm   2 mph /  3.2 km/h 39 % 0 in /  0.0 mm
20:22 94.5 °F /  34.7 °C 65.7 °F /  18.7 °C 30 in /  1014.8 hPa Calm   2 mph /  3.2 km/h 39 % 0 in /  0.0 mm
20:32 93.7 °F /  34.3 °C 67.1 °F /  19.5 °C 30 in /  1015.1 hPa Calm   2 mph /  3.2 km/h 42 % 0 in /  0.0 mm
20:37 94.1 °F /  34.5 °C 67.5 °F /  19.7 °C 30 in /  1015.1 hPa Calm     42 % 0 in /  0.0 mm
20:42 94.5 °F /  34.7 °C 70.5 °F /  21.4 °C 30 in /  1015.1 hPa Calm     46 % 0 in /  0.0 mm
20:47 93.6 °F /  34.2 °C 68.4 °F /  20.2 °C 30 in /  1015.1 hPa Calm     44 % 0 in /  0.0 mm
20:52 93 °F /  33.9 °C 68.5 °F /  20.3 °C 30 in /  1015.1 hPa Calm     45 % 0 in /  0.0 mm
21:02 92.1 °F /  33.4 °C 69.6 °F /  20.9 °C 30 in /  1015.1 hPa Calm     48 % 0 in /  0.0 mm
21:07 91.9 °F /  33.3 °C 68.9 °F /  20.5 °C 30 in /  1015.1 hPa Calm     47 % 0 in /  0.0 mm
21:12 91.6 °F /  33.1 °C 69.1 °F /  20.6 °C 30 in /  1015.1 hPa Calm     48 % 0 in /  0.0 mm
21:22 90.1 °F /  32.3 °C 68.4 °F /  20.2 °C 30 in /  1015.1 hPa Calm     49 % 0 in /  0.0 mm
21:32 88.3 °F /  31.3 °C 68.5 °F /  20.3 °C 30 in /  1015.5 hPa Calm     52 % 0 in /  0.0 mm
21:42 86.5 °F /  30.3 °C 68.9 °F /  20.5 °C 30 in /  1015.5 hPa Calm     56 % 0 in /  0.0 mm
21:52 85.3 °F /  29.6 °C 68.4 °F /  20.2 °C 30 in /  1015.5 hPa Calm     57 % 0 in /  0.0 mm
22:02 84 °F /  28.9 °C 69.1 °F /  20.6 °C 30 in /  1015.5 hPa Calm     61 % 0 in /  0.0 mm
22:12 83.3 °F /  28.5 °C 68.4 °F /  20.2 °C 30 in /  1015.5 hPa Calm     61 % 0 in /  0.0 mm
22:17 82.9 °F /  28.3 °C 68.2 °F /  20.1 °C 30 in /  1015.5 hPa Calm     61 % 0 in /  0.0 mm
22:22 83.1 °F /  28.4 °C 68.7 °F /  20.4 °C 30 in /  1015.5 hPa Calm     62 % 0 in /  0.0 mm
22:27 82.9 °F /  28.3 °C 69.1 °F /  20.6 °C 30 in /  1015.8 hPa Calm     63 % 0 in /  0.0 mm
22:32 82.6 °F /  28.1 °C 67.8 °F /  19.9 °C 30 in /  1015.8 hPa Calm     61 % 0 in /  0.0 mm
22:42 81.7 °F /  27.6 °C 67.8 °F /  19.9 °C 30 in /  1015.8 hPa Calm     63 % 0 in /  0.0 mm
22:52 81.1 °F /  27.3 °C 68.2 °F /  20.1 °C 30 in /  1015.8 hPa Calm     65 % 0 in /  0.0 mm
22:57 81.1 °F /  27.3 °C 68.2 °F /  20.1 °C 30 in /  1015.8 hPa Calm     65 % 0 in /  0.0 mm
23:02 81 °F /  27.2 °C 68.5 °F /  20.3 °C 30 in /  1015.8 hPa Calm     66 % 0 in /  0.0 mm
23:12 80.4 °F /  26.9 °C 68.5 °F /  20.3 °C 30 in /  1015.8 hPa Calm     67 % 0 in /  0.0 mm
23:17 80.1 °F /  26.7 °C 68.5 °F /  20.3 °C 30 in /  1015.8 hPa Calm     68 % 0 in /  0.0 mm
23:22 79.5 °F /  26.4 °C 68.5 °F /  20.3 °C 30 in /  1015.8 hPa Calm     69 % 0 in /  0.0 mm
23:27 79.3 °F /  26.3 °C 68.4 °F /  20.2 °C 30 in /  1015.8 hPa Calm     69 % 0 in /  0.0 mm
23:32 78.8 °F /  26.0 °C 68.2 °F /  20.1 °C 30 in /  1015.8 hPa Calm     70 % 0 in /  0.0 mm
23:42 78.4 °F /  25.8 °C 68.7 °F /  20.4 °C 30 in /  1015.8 hPa Calm     72 % 0 in /  0.0 mm
23:47 78.6 °F /  25.9 °C 68.4 °F /  20.2 °C 30 in /  1015.8 hPa Calm     71 % 0 in /  0.0 mm
23:52 78.4 °F /  25.8 °C 68.2 °F /  20.1 °C 30 in /  1015.8 hPa Calm     71 % 0 in /  0.0 mm
Meteo18
Compliments of Weather Underground - 4 mb

Script developed by  Jim McMurry - jmcmurry@mwt.net Adapted for the template by  Wim van der Kuil - Leuven-Template.eu

You find our weather info also at:

European Weather Network

Weather Underground

Equipment we use:

Weather-station
Davis Vue

Weather-program
Meteohub

Weather-server
Raspberry PI 2 B+

Provider
1 and 1

Davis Vue

Meteohub

Raspberry PI 2 B+

1 and 1